Time;durP1;ratioP1;P1;durP2;ratioP2;P2;SDS_P1;SDS_P2;PMS_P1;PMS_P2;Temp;Humidity;BMP_temperature;BMP_pressure;BME280_temperature;BME280_humidity;BME280_pressure;Samples;Min_cycle;Max_cycle;Signal;HPM_P1;HPM_P2
2022/09/13 00:01:25;;;;;;;1.40;1.30;;;;;;;14.85;58.40;99491.13;4466397;32;33890;-78
2022/09/13 00:03:54;;;;;;;3.40;1.65;;;;;;;14.87;58.35;99496.31;4462922;32;33532;-78
2022/09/13 00:06:25;;;;;;;2.83;1.70;;;;;;;15.06;57.90;99499.13;4459617;32;33072;-76
2022/09/13 00:08:53;;;;;;;1.95;1.33;;;;;;;14.92;58.51;99497.84;4472769;32;33908;-77
2022/09/13 00:11:25;;;;;;;2.55;1.30;;;;;;;14.79;58.72;99493.94;4472798;32;34096;-76
2022/09/13 00:13:54;;;;;;;3.30;1.65;;;;;;;14.81;58.72;99493.88;4461474;32;33905;-78
2022/09/13 00:16:25;;;;;;;2.30;1.30;;;;;;;14.70;58.97;99502.94;4463729;32;33964;-76
2022/09/13 00:18:55;;;;;;;2.08;1.40;;;;;;;14.72;59.03;99501.12;4474939;32;33910;-77
2022/09/13 00:21:26;;;;;;;4.12;1.73;;;;;;;14.60;59.26;99498.94;4470182;32;33591;-77
2022/09/13 00:23:55;;;;;;;;;;;;;;;14.61;59.27;99494.56;4474065;32;32940;-76
2022/09/13 00:26:25;;;;;;;2.22;1.62;;;;;;;14.42;59.48;99495.09;4460839;32;33613;-76
2022/09/13 00:28:56;;;;;;;2.03;1.53;;;;;;;14.52;59.09;99493.94;4472905;32;33782;-76
2022/09/13 00:31:26;;;;;;;2.15;1.40;;;;;;;14.53;58.87;99492.16;4468259;32;33637;-77
2022/09/13 00:33:57;;;;;;;2.75;1.50;;;;;;;14.23;60.16;99493.97;4467144;32;33511;-78
2022/09/13 00:36:27;;;;;;;1.48;1.35;;;;;;;14.28;59.88;99492.94;4461137;32;34161;-78
2022/09/13 00:38:56;;;;;;;3.10;1.50;;;;;;;14.19;60.08;99498.44;4472227;32;33241;-76
2022/09/13 00:41:25;;;;;;;2.35;1.42;;;;;;;14.32;59.92;99487.62;4444889;32;32951;-77
2022/09/13 00:43:57;;;;;;;2.30;1.33;;;;;;;14.40;59.55;99483.88;4476586;32;33309;-76
2022/09/13 00:46:34;;;;;;;1.98;1.42;;;;;;;14.30;59.75;99485.94;4467657;32;33774;-76
2022/09/13 00:49:12;;;;;;;1.95;1.33;;;;;;;14.17;60.13;99489.81;4466921;32;33380;-76
2022/09/13 00:51:45;;;;;;;2.25;1.60;;;;;;;14.30;59.64;99485.94;4463756;32;34516;-75
2022/09/13 00:54:17;;;;;;;2.75;1.70;;;;;;;14.21;59.93;99493.19;4472061;32;32679;-75
2022/09/13 00:56:50;;;;;;;1.67;1.20;;;;;;;14.32;59.49;99491.09;4469027;32;33710;-76
2022/09/13 00:59:24;;;;;;;3.92;1.85;;;;;;;14.33;59.09;99486.72;4475753;32;34491;-77
2022/09/13 01:01:55;;;;;;;1.83;1.40;;;;;;;14.30;59.04;99487.66;4459963;32;34550;-77
2022/09/13 01:04:26;;;;;;;1.58;1.30;;;;;;;14.29;59.34;99488.59;4470079;32;33193;-77
2022/09/13 01:06:59;;;;;;;3.03;1.40;;;;;;;14.18;59.68;99480.22;4458450;32;34635;-76
2022/09/13 01:09:28;;;;;;;2.87;1.60;;;;;;;14.23;59.60;99492.25;4475291;32;34451;-77
2022/09/13 01:12:03;;;;;;;4.62;1.70;;;;;;;14.21;59.72;99490.59;4470213;32;34430;-76
2022/09/13 01:14:32;;;;;;;2.40;1.33;;;;;;;13.97;60.21;99485.22;4469785;32;33864;-75
2022/09/13 01:17:01;;;;;;;1.30;1.20;;;;;;;14.18;59.61;99493.28;4465296;32;33227;-78
2022/09/13 01:19:30;;;;;;;2.22;1.40;;;;;;;13.97;60.12;99487.81;4468961;32;33380;-78
2022/09/13 01:22:34;;;;;;;2.78;1.50;;;;;;;14.08;59.51;99490.94;4458982;32;33421;-78
2022/09/13 01:25:45;;;;;;;1.83;1.30;;;;;;;14.19;59.15;99492.38;4459872;32;33496;-76
2022/09/13 01:28:52;;;;;;;2.70;1.87;;;;;;;14.18;58.80;99490.66;4461704;32;33478;-78
2022/09/13 01:31:31;;;;;;;2.87;1.35;;;;;;;14.09;58.82;99481.38;4455901;32;33558;-77
2022/09/13 01:34:13;;;;;;;3.20;1.77;;;;;;;14.08;58.52;99483.13;4458990;32;33343;-76
2022/09/13 01:36:54;;;;;;;1.75;1.33;;;;;;;13.88;58.67;99485.50;4472289;32;33498;-76
2022/09/13 01:39:34;;;;;;;1.42;1.30;;;;;;;14.12;57.86;99488.25;4471022;32;34984;-75
2022/09/13 01:42:11;;;;;;;2.30;1.37;;;;;;;13.93;58.54;99482.75;4474540;32;33633;-76
2022/09/13 01:44:49;;;;;;;3.12;1.37;;;;;;;13.84;58.81;99481.25;4466175;32;33750;-77
2022/09/13 01:47:25;;;;;;;2.53;1.50;;;;;;;13.90;58.63;99475.03;4469457;32;33513;-76
2022/09/13 01:50:01;;;;;;;4.65;1.45;;;;;;;13.82;59.03;99478.72;4469621;32;34169;-77
2022/09/13 01:52:38;;;;;;;1.55;1.45;;;;;;;14.02;58.25;99479.88;4472249;32;34791;-76
2022/09/13 01:55:11;;;;;;;1.62;1.27;;;;;;;13.92;58.49;99479.28;4468176;32;34330;-76
2022/09/13 01:57:46;;;;;;;3.75;1.67;;;;;;;13.89;58.40;99474.16;4470623;32;33754;-78
2022/09/13 02:00:17;;;;;;;2.05;1.55;;;;;;;13.94;58.23;99467.06;4472651;32;33565;-75
2022/09/13 02:02:51;;;;;;;2.50;1.58;;;;;;;13.78;58.41;99469.28;4459189;32;33745;-76
2022/09/13 02:05:24;;;;;;;2.67;1.45;;;;;;;13.90;58.13;99468.06;4468298;32;33835;-78
2022/09/13 02:07:59;;;;;;;2.03;1.40;;;;;;;14.00;57.66;99472.06;4479844;32;32874;-77
2022/09/13 02:10:34;;;;;;;1.52;1.40;;;;;;;13.77;58.55;99469.31;4464739;32;34221;-76
2022/09/13 02:13:05;;;;;;;1.33;1.23;;;;;;;13.80;58.35;99464.88;4459551;32;33684;-78
2022/09/13 02:15:37;;;;;;;1.95;1.40;;;;;;;13.86;58.24;99469.88;4464097;32;34776;-76
2022/09/13 02:18:08;;;;;;;;;;;;;;;13.88;58.18;99467.25;4472558;32;33729;-76
2022/09/13 02:20:39;;;;;;;2.22;1.52;;;;;;;13.85;58.12;99468.19;4475654;32;33484;-75
2022/09/13 02:23:12;;;;;;;2.67;1.80;;;;;;;13.84;58.25;99471.72;4463670;32;34032;-75
2022/09/13 02:25:41;;;;;;;4.18;1.60;;;;;;;13.75;58.51;99464.16;4461868;32;33745;-78
2022/09/13 02:28:12;;;;;;;1.62;1.52;;;;;;;13.75;58.42;99460.66;4463472;32;33373;-78
2022/09/13 02:30:46;;;;;;;1.98;1.42;;;;;;;13.77;58.19;99454.53;4471437;32;33203;-76
2022/09/13 02:33:18;;;;;;;2.67;1.98;;;;;;;13.74;58.29;99449.41;4470340;32;33516;-75
2022/09/13 02:35:51;;;;;;;1.50;1.30;;;;;;;13.82;58.13;99447.44;4462590;32;32915;-77
2022/09/13 02:38:24;;;;;;;4.65;1.75;;;;;;;13.61;58.89;99450.66;4467489;32;34529;-76
2022/09/13 02:40:57;;;;;;;2.45;1.40;;;;;;;13.74;58.60;99449.41;4476584;32;33634;-77
2022/09/13 02:43:30;;;;;;;2.80;1.58;;;;;;;13.82;58.61;99450.03;4478246;32;33656;-77
2022/09/13 02:46:10;;;;;;;2.72;1.60;;;;;;;13.55;59.22;99449.06;4483091;32;34256;-76
2022/09/13 02:48:48;;;;;;;1.73;1.48;;;;;;;13.72;58.84;99450.34;4477974;32;33137;-76
2022/09/13 02:51:24;;;;;;;1.52;1.30;;;;;;;13.64;58.97;99454.03;4477145;32;33510;-76
2022/09/13 02:53:59;;;;;;;2.92;1.65;;;;;;;13.55;59.01;99450.84;4477601;32;34636;-76
2022/09/13 02:56:34;;;;;;;2.37;1.50;;;;;;;13.70;58.52;99446.91;4477388;32;33536;-77
2022/09/13 02:59:05;;;;;;;1.73;1.42;;;;;;;13.58;58.94;99441.19;4477198;32;32544;-78
2022/09/13 03:01:35;;;;;;;1.83;1.58;;;;;;;13.68;58.64;99441.78;4469762;32;33704;-76
2022/09/13 03:04:06;;;;;;;2.10;1.50;;;;;;;13.66;58.86;99435.75;4460068;32;33025;-76
2022/09/13 03:06:35;;;;;;;1.73;1.33;;;;;;;13.66;58.76;99440.97;4466593;32;33182;-77
2022/09/13 03:09:05;;;;;;;1.50;1.40;;;;;;;13.70;58.69;99432.16;4475564;32;33889;-76
2022/09/13 03:11:43;;;;;;;2.42;1.65;;;;;;;13.58;59.11;99432.50;4470700;32;33381;-76
2022/09/13 03:14:19;;;;;;;2.08;1.35;;;;;;;13.64;58.59;99429.72;4461612;32;33540;-76
2022/09/13 03:17:01;;;;;;;2.65;1.92;;;;;;;13.60;58.62;99421.16;4468500;32;33707;-76
2022/09/13 03:19:43;;;;;;;3.20;1.87;;;;;;;13.41;59.24;99427.81;4464066;32;32963;-76
2022/09/13 03:22:23;;;;;;;1.50;1.30;;;;;;;13.30;59.43;99424.66;4469954;32;33652;-78
2022/09/13 03:25:00;;;;;;;2.35;1.70;;;;;;;13.33;59.62;99425.41;4480103;32;33882;-76
2022/09/13 03:27:34;;;;;;;1.90;1.33;;;;;;;13.57;58.81;99420.38;4472727;32;33966;-76
2022/09/13 03:30:05;;;;;;;1.90;1.33;;;;;;;13.42;59.52;99419.94;4461245;32;33239;-75
2022/09/13 03:32:41;;;;;;;3.22;2.00;;;;;;;13.60;58.58;99415.94;4467445;32;33486;-77
2022/09/13 03:35:19;;;;;;;2.87;1.58;;;;;;;13.53;58.37;99422.22;4460665;32;34449;-77
2022/09/13 03:37:57;;;;;;;1.60;1.25;;;;;;;13.52;58.47;99415.28;4476292;32;33538;-76
2022/09/13 03:40:35;;;;;;;2.22;1.55;;;;;;;13.35;59.07;99414.94;4479444;32;33148;-76
2022/09/13 03:43:08;;;;;;;3.05;1.67;;;;;;;13.13;59.63;99418.12;4472185;32;34192;-76
2022/09/13 03:45:40;;;;;;;2.40;1.67;;;;;;;13.23;59.15;99416.97;4466920;32;34501;-75
2022/09/13 03:48:12;;;;;;;1.77;1.33;;;;;;;13.14;59.82;99413.75;4469171;32;32805;-76
2022/09/13 03:50:43;;;;;;;3.35;1.95;;;;;;;13.36;59.30;99403.59;4476768;32;33204;-75
2022/09/13 03:53:15;;;;;;;1.92;1.58;;;;;;;13.05;60.15;99417.50;4465775;32;33749;-76
2022/09/13 03:55:44;;;;;;;1.98;1.48;;;;;;;13.26;59.59;99403.00;4472484;32;33783;-77
2022/09/13 03:58:13;;;;;;;7.03;1.65;;;;;;;13.07;60.65;99410.50;4473672;32;33583;-78
2022/09/13 04:00:42;;;;;;;3.17;1.48;;;;;;;13.00;60.37;99412.41;4458843;32;89988;-77
2022/09/13 04:03:11;;;;;;;4.85;1.75;;;;;;;13.39;59.18;99401.78;4466074;32;33428;-76
2022/09/13 04:05:40;;;;;;;3.17;1.70;;;;;;;13.21;59.70;99405.72;4472257;32;36855;-76
2022/09/13 04:08:10;;;;;;;1.60;1.50;;;;;;;13.24;59.81;99408.25;4460663;32;34135;-76
2022/09/13 04:10:39;;;;;;;2.62;1.60;;;;;;;13.18;59.86;99413.63;4461142;32;32734;-77
2022/09/13 04:13:08;;;;;;;2.75;1.60;;;;;;;13.24;59.38;99408.25;4476916;32;33710;-78
2022/09/13 04:15:36;;;;;;;1.92;1.70;;;;;;;12.97;59.58;99419.44;4467589;32;34586;-76
2022/09/13 04:18:05;;;;;;;1.83;1.20;;;;;;;13.15;59.57;99421.53;4468692;32;34025;-75
2022/09/13 04:20:34;;;;;;;6.12;1.90;;;;;;;13.24;59.14;99423.03;4463054;32;34118;-75
2022/09/13 04:23:03;;;;;;;1.90;1.50;;;;;;;13.10;59.43;99423.44;4462665;32;33250;-76
2022/09/13 04:25:34;;;;;;;3.17;1.75;;;;;;;13.06;59.46;99423.56;4478898;32;34593;-77
2022/09/13 04:28:02;;;;;;;2.33;1.50;;;;;;;13.09;59.39;99421.69;4472256;32;33977;-77
2022/09/13 04:30:33;;;;;;;2.78;1.70;;;;;;;13.01;59.62;99423.66;4462723;32;33748;-78
2022/09/13 04:33:02;;;;;;;2.53;1.35;;;;;;;13.00;59.75;99425.44;4464825;32;33226;-76
2022/09/13 04:35:31;;;;;;;3.75;2.05;;;;;;;13.03;59.64;99419.28;4465780;32;34825;-76
2022/09/13 04:37:59;;;;;;;2.45;1.40;;;;;;;12.93;59.96;99423.03;4473814;32;34377;-76
2022/09/13 04:40:28;;;;;;;3.62;1.50;;;;;;;13.06;59.42;99416.59;4459616;32;33226;-76
2022/09/13 04:42:58;;;;;;;4.30;1.60;;;;;;;12.92;59.90;99418.72;4474310;32;32964;-76
2022/09/13 04:45:27;;;;;;;2.78;1.87;;;;;;;12.84;60.48;99424.13;4468482;32;34513;-77
2022/09/13 04:47:56;;;;;;;4.72;2.22;;;;;;;13.02;59.64;99420.16;4458485;32;33236;-77
2022/09/13 04:50:25;;;;;;;1.80;1.42;;;;;;;13.03;59.78;99424.50;4463511;32;32541;-76
2022/09/13 04:52:55;;;;;;;2.03;1.40;;;;;;;13.09;59.80;99424.31;4465836;32;34337;-78
2022/09/13 04:55:24;;;;;;;2.65;1.50;;;;;;;13.16;59.59;99425.84;4464453;32;33660;-76
2022/09/13 04:57:54;;;;;;;3.58;2.22;;;;;;;13.19;59.55;99425.78;4469429;32;33515;-77
2022/09/13 05:00:25;;;;;;;2.72;1.50;;;;;;;13.30;59.11;99432.47;4467106;32;33248;-77
2022/09/13 05:02:56;;;;;;;1.50;1.40;;;;;;;13.00;60.17;99432.41;4458286;32;32891;-76
2022/09/13 05:05:27;;;;;;;3.17;1.60;;;;;;;13.04;60.31;99436.59;4462751;32;33547;-75
2022/09/13 05:07:56;;;;;;;3.65;1.77;;;;;;;13.09;60.26;99431.28;4471453;32;33655;-76
2022/09/13 05:10:24;;;;;;;3.50;2.12;;;;;;;13.19;60.15;99430.09;4468383;32;34019;-76
2022/09/13 05:12:53;;;;;;;3.60;2.55;;;;;;;13.26;59.77;99430.81;4472577;32;33569;-76
2022/09/13 05:15:23;;;;;;;3.67;1.80;;;;;;;13.32;60.08;99423.69;4474854;32;33393;-77
2022/09/13 05:17:53;;;;;;;3.20;1.70;;;;;;;13.26;60.36;99430.81;4461040;32;33825;-76
2022/09/13 05:20:21;;;;;;;4.57;2.22;;;;;;;13.34;59.94;99426.28;4470886;32;33023;-76
2022/09/13 05:22:50;;;;;;;3.15;1.73;;;;;;;13.30;59.91;99432.47;4461519;32;33742;-76
2022/09/13 05:25:19;;;;;;;2.30;1.70;;;;;;;13.36;59.84;99430.53;4469716;32;34015;-76
2022/09/13 05:27:53;;;;;;;3.08;1.98;;;;;;;13.41;59.95;99433.03;4476766;32;33397;-77
2022/09/13 05:30:22;;;;;;;2.78;1.87;;;;;;;13.43;60.27;99433.81;4470936;32;33348;-76
2022/09/13 05:32:50;;;;;;;2.90;2.10;;;;;;;13.29;60.65;99436.81;4461126;32;34578;-75
2022/09/13 05:35:21;;;;;;;1.85;1.50;;;;;;;13.37;60.33;99423.56;4467431;32;33317;-77
2022/09/13 05:37:49;;;;;;;3.55;2.00;;;;;;;13.63;59.90;99430.63;4465522;32;33447;-75
2022/09/13 05:40:18;;;;;;;3.03;1.67;;;;;;;13.53;60.38;99424.84;4466696;32;33043;-77
2022/09/13 05:42:47;;;;;;;2.75;1.83;;;;;;;13.64;59.79;99435.78;4480066;32;34513;-76
2022/09/13 05:45:15;;;;;;;2.78;1.92;;;;;;;13.70;59.81;99424.34;4460019;32;33653;-76
2022/09/13 05:47:44;;;;;;;3.22;1.52;;;;;;;13.79;60.55;99431.00;4460547;32;33864;-76
2022/09/13 05:50:13;;;;;;;5.60;2.30;;;;;;;13.90;60.75;99431.53;4471554;32;33105;-77
2022/09/13 05:53:03;;;;;;;3.28;2.03;;;;;;;14.04;60.72;99431.97;4478170;32;33470;-78
2022/09/13 05:55:32;;;;;;;3.47;2.07;;;;;;;14.15;60.55;99438.59;4482435;32;33944;-76
2022/09/13 05:58:02;;;;;;;2.20;1.70;;;;;;;14.39;59.19;99431.72;4475140;32;33888;-76
2022/09/13 06:00:31;;;;;;;6.72;1.70;;;;;;;14.54;58.54;99433.00;4476443;32;34087;-76
2022/09/13 06:03:00;;;;;;;3.58;1.80;;;;;;;14.48;58.21;99431.44;4477685;32;34385;-76
2022/09/13 06:05:28;;;;;;;1.77;1.50;;;;;;;14.42;58.65;99442.91;4480302;32;35224;-76
2022/09/13 06:08:01;;;;;;;4.05;2.17;;;;;;;14.59;58.20;99447.59;4474446;32;33497;-76
2022/09/13 06:10:32;;;;;;;3.70;2.30;;;;;;;14.65;58.16;99452.63;4474827;32;33944;-76
2022/09/13 06:13:01;;;;;;;2.83;1.92;;;;;;;14.84;57.85;99452.00;4475584;32;33649;-78
2022/09/13 06:15:29;;;;;;;3.12;1.40;;;;;;;14.83;57.91;99443.31;4481319;32;34634;-77
2022/09/13 06:17:58;;;;;;;2.65;1.55;;;;;;;14.84;57.72;99437.19;4480555;32;33797;-76
2022/09/13 06:20:27;;;;;;;3.40;1.73;;;;;;;15.09;57.24;99439.78;4476217;32;34149;-75
2022/09/13 06:22:56;;;;;;;3.33;1.80;;;;;;;15.27;55.59;99437.41;4465866;32;34154;-76
2022/09/13 06:25:24;;;;;;;5.03;2.17;;;;;;;15.24;56.16;99438.38;4466763;32;33607;-76
2022/09/13 06:27:54;;;;;;;3.50;1.95;;;;;;;15.49;56.10;99442.72;4471392;32;33739;-76
2022/09/13 06:30:23;;;;;;;2.55;1.37;;;;;;;15.30;57.16;99440.78;4461958;32;32923;-76
2022/09/13 06:32:52;;;;;;;2.12;1.48;;;;;;;15.68;55.47;99445.47;4464668;32;34382;-76
2022/09/13 06:35:21;;;;;;;2.45;1.25;;;;;;;15.86;53.63;99439.59;4460182;32;34456;-76
2022/09/13 06:37:49;;;;;;;5.10;1.55;;;;;;;16.09;53.19;99443.91;4469272;32;33924;-76
2022/09/13 06:40:19;;;;;;;1.62;1.17;;;;;;;16.21;52.25;99440.81;4465143;32;33987;-76
2022/09/13 06:42:52;;;;;;;4.05;1.92;;;;;;;16.20;53.58;99440.88;4467172;32;35132;-77
2022/09/13 06:45:22;;;;;;;4.57;1.67;;;;;;;16.03;54.36;99438.91;4465867;32;33737;-78
2022/09/13 06:47:53;;;;;;;2.37;1.50;;;;;;;16.63;52.94;99442.56;4459140;32;34799;-76
2022/09/13 06:50:22;;;;;;;2.60;1.45;;;;;;;16.55;53.92;99444.66;4464931;32;33414;-76
2022/09/13 06:52:51;;;;;;;2.85;1.35;;;;;;;16.67;53.92;99439.81;4467642;32;33883;-77
2022/09/13 06:55:20;;;;;;;2.22;1.45;;;;;;;16.64;54.35;99436.41;4459079;32;33987;-76
2022/09/13 06:57:49;;;;;;;6.10;1.30;;;;;;;16.86;52.71;99443.38;4461580;32;35275;-76
2022/09/13 07:00:18;;;;;;;3.03;1.62;;;;;;;16.85;53.04;99447.78;4471399;32;33061;-76
2022/09/13 07:02:51;;;;;;;2.87;1.30;;;;;;;17.13;52.02;99448.34;4472568;32;34275;-76
2022/09/13 07:05:21;;;;;;;3.58;1.52;;;;;;;17.24;52.66;99453.97;4469276;32;34901;-76
2022/09/13 07:07:49;;;;;;;1.25;1.15;;;;;;;17.37;53.13;99443.78;4458947;32;33902;-76
2022/09/13 07:10:18;;;;;;;2.33;1.48;;;;;;;17.23;53.46;99453.13;4461114;32;33120;-76
2022/09/13 07:12:47;;;;;;;1.67;1.25;;;;;;;17.39;50.96;99450.66;4467854;32;33759;-77
2022/09/13 07:15:16;;;;;;;2.15;1.77;;;;;;;17.46;50.82;99456.47;4467811;32;34254;-76
2022/09/13 07:17:44;;;;;;;2.45;1.20;;;;;;;17.63;50.38;99451.31;4469153;32;33493;-75
2022/09/13 07:20:16;;;;;;;2.97;1.50;;;;;;;17.88;48.68;99450.22;4470702;32;33316;-77
2022/09/13 07:22:44;;;;;;;2.92;1.17;;;;;;;17.79;49.21;99458.50;4474978;32;33720;-78
2022/09/13 07:25:13;;;;;;;2.10;1.20;;;;;;;17.97;49.34;99462.03;4467096;32;33772;-78
2022/09/13 07:27:42;;;;;;;2.92;1.42;;;;;;;17.89;48.84;99462.41;4467188;32;34584;-77
2022/09/13 07:30:11;;;;;;;2.20;1.30;;;;;;;18.17;47.64;99458.47;4462126;32;33165;-78
2022/09/13 07:32:41;;;;;;;3.03;1.23;;;;;;;18.08;47.07;99465.03;4466123;32;33762;-76
2022/09/13 07:35:10;;;;;;;2.03;1.25;;;;;;;18.16;46.49;99462.88;4467461;32;33615;-78
2022/09/13 07:37:41;;;;;;;1.50;1.00;;;;;;;18.09;47.53;99462.31;4465669;32;33967;-76
2022/09/13 07:40:11;;;;;;;1.37;0.90;;;;;;;18.27;47.71;99459.75;4467230;32;33092;-76
2022/09/13 07:42:39;;;;;;;1.00;0.90;;;;;;;18.46;48.41;99460.53;4465921;32;34637;-77
2022/09/13 07:45:09;;;;;;;2.87;1.37;;;;;;;18.64;46.56;99456.12;4471671;32;33609;-78
2022/09/13 07:47:38;;;;;;;1.70;1.00;;;;;;;18.76;47.26;99463.44;4468088;32;33688;-76
2022/09/13 07:50:07;;;;;;;3.83;1.25;;;;;;;18.75;47.80;99466.13;4465432;32;31070;-76
2022/09/13 07:52:36;;;;;;;2.30;1.58;;;;;;;19.04;47.59;99464.66;4473888;32;33749;-75
2022/09/13 07:55:07;;;;;;;1.75;1.02;;;;;;;19.02;44.98;99463.91;4473376;32;33648;-75
2022/09/13 07:57:36;;;;;;;9.43;2.08;;;;;;;18.98;45.48;99463.19;4465921;32;33421;-75
2022/09/13 08:00:06;;;;;;;1.62;1.20;;;;;;;19.07;46.28;99463.66;4463376;32;34025;-77
2022/09/13 08:02:39;;;;;;;2.30;1.27;;;;;;;19.21;46.92;99458.53;4474472;32;33656;-75
2022/09/13 08:05:08;;;;;;;1.90;1.40;;;;;;;19.34;45.40;99456.09;4476162;32;34732;-77
2022/09/13 08:07:36;;;;;;;1.77;0.90;;;;;;;19.17;45.64;99457.84;4477872;32;33466;-75
2022/09/13 08:10:07;;;;;;;3.97;1.37;;;;;;;19.32;46.54;99458.81;4459083;32;33926;-76
2022/09/13 08:12:36;;;;;;;2.67;1.50;;;;;;;19.45;46.17;99464.28;4477236;32;33825;-77
2022/09/13 08:15:06;;;;;;;1.73;1.20;;;;;;;19.67;45.63;99460.47;4478392;32;34764;-76
2022/09/13 08:17:34;;;;;;;2.92;1.50;;;;;;;19.74;46.25;99464.50;4471535;32;34719;-77
2022/09/13 08:20:05;;;;;;;3.00;1.40;;;;;;;19.81;44.32;99461.47;4473801;32;34242;-78
2022/09/13 08:22:34;;;;;;;2.65;1.40;;;;;;;19.85;44.35;99464.78;4458263;32;33316;-76
2022/09/13 08:25:08;;;;;;;2.33;1.20;;;;;;;19.81;45.30;99469.38;4461769;32;33737;-77
2022/09/13 08:27:37;;;;;;;3.15;1.25;;;;;;;19.93;44.18;99467.81;4460311;32;34390;-76
2022/09/13 08:30:09;;;;;;;2.55;1.50;;;;;;;19.87;44.29;99468.16;4465683;32;33352;-76
2022/09/13 08:32:38;;;;;;;2.87;1.30;;;;;;;19.81;44.46;99458.84;4460795;32;33709;-77
2022/09/13 08:35:07;;;;;;;2.28;1.12;;;;;;;19.82;44.92;99457.88;4470618;32;33453;-77
2022/09/13 08:37:35;;;;;;;3.08;1.60;;;;;;;19.92;44.67;99457.38;4468118;32;33890;-77
2022/09/13 08:40:05;;;;;;;2.08;1.23;;;;;;;20.11;44.63;99457.22;4482849;32;33540;-76
2022/09/13 08:42:48;;;;;;;3.15;1.45;;;;;;;20.29;43.63;99458.78;4471346;32;34185;-77
2022/09/13 08:45:17;;;;;;;1.42;0.98;;;;;;;20.34;41.93;99450.63;4469671;32;34029;-77
2022/09/13 08:47:48;;;;;;;1.90;1.20;;;;;;;20.40;43.10;99455.56;4465852;32;34630;-76
2022/09/13 08:50:21;;;;;;;2.30;1.33;;;;;;;20.49;44.35;99462.06;4460436;32;33652;-77
2022/09/13 08:53:03;;;;;;;2.15;1.05;;;;;;;20.27;42.77;99457.19;4466795;32;35250;-76
2022/09/13 08:55:40;;;;;;;2.25;1.20;;;;;;;20.32;42.50;99460.41;4466375;32;33693;-77
2022/09/13 08:58:24;;;;;;;2.33;1.17;;;;;;;20.57;42.60;99452.81;4460033;32;32926;-76
2022/09/13 09:00:59;;;;;;;2.75;1.27;;;;;;;20.62;43.03;99453.41;4464333;32;33352;-76
2022/09/13 09:03:32;;;;;;;1.12;1.00;;;;;;;20.71;42.78;99459.06;4471549;32;33601;-78
2022/09/13 09:06:01;;;;;;;2.60;1.50;;;;;;;20.85;41.87;99461.72;4461224;32;33467;-76
2022/09/13 09:08:33;;;;;;;2.45;1.33;;;;;;;20.91;41.76;99455.25;4481274;32;34354;-76
2022/09/13 09:11:04;;;;;;;2.90;1.30;;;;;;;21.16;41.65;99447.56;4476821;32;33421;-75
2022/09/13 09:13:37;;;;;;;2.40;1.27;;;;;;;21.29;41.86;99451.16;4471623;32;34552;-78
2022/09/13 09:16:10;;;;;;;2.80;1.05;;;;;;;21.08;42.38;99445.37;4469461;32;34439;-76
2022/09/13 09:18:43;;;;;;;4.15;1.58;;;;;;;21.30;41.44;99446.72;4482103;32;33972;-78
2022/09/13 09:21:16;;;;;;;2.72;1.55;;;;;;;20.95;41.41;99441.81;4474702;32;35108;-76
2022/09/13 09:23:49;;;;;;;1.92;1.25;;;;;;;21.30;41.27;99439.66;4459733;32;33597;-77
2022/09/13 09:26:19;;;;;;;3.15;1.65;;;;;;;21.44;41.20;99433.56;4460226;32;33738;-78
2022/09/13 09:28:50;;;;;;;3.55;1.70;;;;;;;21.40;41.70;99433.84;4459930;32;33575;-78
2022/09/13 09:31:25;;;;;;;2.30;1.27;;;;;;;21.59;39.61;99431.75;4467117;32;32992;-76
2022/09/13 09:34:07;;;;;;;5.87;1.23;;;;;;;21.56;41.56;99431.09;4474829;32;33857;-76
2022/09/13 09:36:41;;;;;;;2.95;1.37;;;;;;;21.59;40.46;99426.47;4476805;32;34095;-76
2022/09/13 09:39:11;;;;;;;2.05;1.27;;;;;;;21.73;39.59;99422.97;4476570;32;34065;-77
2022/09/13 09:41:40;;;;;;;;;;;;;;;21.78;39.70;99422.69;4474649;32;33454;-78
2022/09/13 09:44:18;;;;;;;3.87;1.12;;;;;;;21.79;38.08;99419.91;4466325;32;33412;-77
2022/09/13 09:46:50;;;;;;;2.75;1.12;;;;;;;21.92;37.85;99420.84;4461076;32;33900;-78
2022/09/13 09:52:11;;;;;;;1.27;0.95;;;;;;;21.87;38.06;99419.44;4466400;32;34222;-77
2022/09/13 09:54:40;;;;;;;2.78;1.23;;;;;;;21.73;37.34;99415.03;4464233;32;33501;-78
2022/09/13 09:57:10;;;;;;;2.25;1.12;;;;;;;21.83;37.82;99408.22;4475640;32;34349;-78
2022/09/13 09:59:40;;;;;;;2.12;1.05;;;;;;;22.01;39.02;99397.41;4476435;32;35067;-77
2022/09/13 10:02:15;;;;;;;2.12;1.17;;;;;;;22.00;38.21;99396.56;4475918;32;32667;-77
2022/09/13 10:04:54;;;;;;;7.12;1.98;;;;;;;22.21;38.06;99388.22;4476308;32;33388;-78
2022/09/13 10:07:27;;;;;;;1.67;1.10;;;;;;;22.42;36.46;99389.41;4470696;32;34024;-77
2022/09/13 10:10:02;;;;;;;1.42;0.88;;;;;;;22.35;34.50;99385.53;4481903;32;34244;-76
2022/09/13 10:12:33;;;;;;;1.90;1.10;;;;;;;22.12;37.07;99387.00;4475260;32;33206;-76
2022/09/13 10:15:07;;;;;;;2.55;1.12;;;;;;;21.99;36.22;99376.41;4461173;32;33628;-76
2022/09/13 10:17:35;;;;;;;2.78;1.17;;;;;;;22.21;37.34;99377.66;4460657;32;34750;-76
2022/09/13 10:20:20;;;;;;;1.40;0.80;;;;;;;22.29;37.61;99380.62;4460307;32;33699;-78
2022/09/13 10:23:10;;;;;;;2.78;0.95;;;;;;;22.27;36.89;99383.37;4468803;32;32988;-77
2022/09/13 10:25:40;;;;;;;2.00;0.88;;;;;;;22.53;37.28;99376.34;4476869;32;34774;-77
2022/09/13 10:28:17;;;;;;;1.10;0.90;;;;;;;22.44;36.20;99376.09;4463349;32;34366;-76
2022/09/13 10:30:52;;;;;;;2.42;1.10;;;;;;;22.48;36.55;99373.16;4459581;32;34007;-78
2022/09/13 10:33:26;;;;;;;1.77;1.10;;;;;;;22.66;36.58;99364.91;4460598;32;32995;-77
2022/09/13 10:35:56;;;;;;;2.80;1.10;;;;;;;22.71;37.26;99366.31;4479062;32;33639;-76
2022/09/13 10:38:30;;;;;;;2.12;1.02;;;;;;;22.95;36.36;99361.13;4472074;32;33179;-77
2022/09/13 10:41:01;;;;;;;5.55;1.15;;;;;;;23.04;35.95;99357.00;4473609;32;34522;-77
2022/09/13 10:43:30;;;;;;;1.98;1.12;;;;;;;23.21;35.67;99355.81;4461349;32;35366;-76
2022/09/13 10:46:03;;;;;;;2.47;1.33;;;;;;;23.31;35.63;99356.00;4461601;32;36341;-77
2022/09/13 10:48:44;;;;;;;1.83;0.88;;;;;;;23.29;35.01;99364.06;4452536;32;32856;-78
2022/09/13 10:51:35;;;;;;;1.33;0.90;;;;;;;23.50;35.28;99366.13;4464134;32;33940;-76
2022/09/13 10:54:10;;;;;;;1.25;0.85;;;;;;;23.54;33.81;99362.31;4461829;32;33000;-77
2022/09/13 10:56:39;;;;;;;1.65;0.98;;;;;;;23.66;33.54;99358.78;4463436;32;33462;-76
2022/09/13 10:59:21;;;;;;;2.78;1.33;;;;;;;23.57;32.91;99362.09;4461763;32;33855;-76
2022/09/13 11:02:04;;;;;;;1.15;0.88;;;;;;;23.47;34.46;99358.44;4462495;32;33791;-77
2022/09/13 11:04:56;;;;;;;2.20;1.10;;;;;;;23.51;34.43;99358.09;4472160;32;33201;-78
2022/09/13 11:07:42;;;;;;;2.85;1.27;;;;;;;23.62;34.41;99349.38;4483599;32;33601;-78
2022/09/13 11:10:16;;;;;;;1.35;0.80;;;;;;;23.53;33.59;99355.31;4478005;32;33117;-75
2022/09/13 11:12:53;;;;;;;4.78;1.30;;;;;;;23.65;34.09;99354.44;4477162;32;34422;-76
2022/09/13 11:15:35;;;;;;;1.60;0.90;;;;;;;23.53;35.04;99350.03;4477841;32;33945;-78
2022/09/13 11:18:29;;;;;;;2.25;0.90;;;;;;;23.59;33.73;99341.66;4476306;32;34424;-77
2022/09/13 11:21:04;;;;;;;1.55;0.95;;;;;;;23.79;33.89;99346.34;4477857;32;34630;-78
2022/09/13 11:23:51;;;;;;;1.33;0.90;;;;;;;24.00;33.24;99348.38;4482145;32;33528;-77
2022/09/13 11:26:33;;;;;;;2.60;0.98;;;;;;;24.13;33.14;99351.81;4476767;32;33052;-78
2022/09/13 11:29:15;;;;;;;1.33;0.70;;;;;;;24.12;32.58;99347.47;4449219;32;33100;-76
2022/09/13 11:31:48;;;;;;;1.33;0.70;;;;;;;24.08;31.96;99338.06;4472791;32;35763;-76
2022/09/13 11:34:37;;;;;;;1.20;0.80;;;;;;;23.90;33.33;99337.63;4477635;32;34023;-77
2022/09/13 11:37:34;;;;;;;1.42;0.98;;;;;;;24.01;33.17;99328.88;4477491;32;33391;-78
2022/09/13 11:40:23;;;;;;;1.65;0.80;;;;;;;24.24;32.75;99335.94;4480647;32;33942;-77
2022/09/13 11:42:59;;;;;;;2.20;0.90;;;;;;;24.26;33.58;99334.03;4467308;32;34805;-75
2022/09/13 11:45:29;;;;;;;2.42;0.80;;;;;;;24.24;33.17;99316.56;4461774;32;33232;-76
2022/09/13 11:48:18;;;;;;;1.62;0.95;;;;;;;24.34;33.53;99319.34;4461812;32;33472;-77
2022/09/13 11:50:55;;;;;;;0.85;0.70;;;;;;;24.24;32.81;99313.91;4464992;32;33957;-78
2022/09/13 11:53:49;;;;;;;1.62;0.65;;;;;;;24.30;33.62;99315.22;4477449;32;33581;-77
2022/09/13 11:56:22;;;;;;;1.62;0.80;;;;;;;24.71;31.58;99306.78;4477029;32;34883;-76
2022/09/13 11:58:53;;;;;;;1.55;1.27;;;;;;;24.84;31.01;99304.00;4483122;32;34301;-76
2022/09/13 12:01:25;;;;;;;0.93;0.70;;;;;;;24.76;31.67;99299.28;4477900;32;33509;-77
2022/09/13 12:03:59;;;;;;;1.02;0.70;;;;;;;24.84;31.15;99298.69;4477575;32;34364;-78